Time;durP1;ratioP1;P1;durP2;ratioP2;P2;SDS_P1;SDS_P2;PMS_P1;PMS_P2;Temp;Humidity;BMP_temperature;BMP_pressure;BME280_temperature;BME280_humidity;BME280_pressure;Samples;Min_cycle;Max_cycle;Signal;HPM_P1;HPM_P2
2022/08/09 00:01:26;;;;;;;10.95;7.47;;;14.40;99.90;;;;;;5035320;28;20041;-68
2022/08/09 00:03:52;;;;;;;10.73;7.00;;;14.30;99.90;;;;;;5046419;28;20486;-68
2022/08/09 00:06:18;;;;;;;10.13;7.07;;;14.30;99.90;;;;;;5058061;28;20048;-68
2022/08/09 00:08:47;;;;;;;8.23;6.25;;;14.20;99.90;;;;;;5038532;28;20126;-67
2022/08/09 00:11:13;;;;;;;6.85;5.28;;;14.10;99.90;;;;;;5039217;28;20442;-67
2022/08/09 00:13:39;;;;;;;8.98;5.45;;;14.00;99.90;;;;;;5052717;28;20040;-67
2022/08/09 00:16:05;;;;;;;19.08;4.85;;;13.90;99.90;;;;;;5034730;28;20052;-67
2022/08/09 00:18:31;;;;;;;9.25;4.97;;;13.80;99.90;;;;;;5058438;28;20040;-67
2022/08/09 00:20:57;;;;;;;5.40;2.80;;;13.70;99.90;;;;;;5037179;28;20467;-67
2022/08/09 00:23:23;;;;;;;27.17;3.85;;;13.60;99.90;;;;;;5041549;28;20050;-67
2022/08/09 00:25:48;;;;;;;175.88;8.10;;;13.50;99.90;;;;;;5050681;28;20768;-67
2022/08/09 00:28:14;;;;;;;6.50;4.00;;;13.30;99.90;;;;;;5038950;28;20037;-67
2022/08/09 00:30:40;;;;;;;10.00;6.07;;;13.20;99.90;;;;;;5035474;28;20029;-67
2022/08/09 00:33:05;;;;;;;48.55;6.45;;;13.10;99.90;;;;;;5037812;28;20387;-67
2022/08/09 00:35:31;;;;;;;8.48;4.78;;;13.20;99.90;;;;;;5035509;28;20131;-67
2022/08/09 00:37:57;;;;;;;8.30;5.80;;;13.10;99.90;;;;;;5032069;28;20045;-67
2022/08/09 00:40:22;;;;;;;7.97;4.93;;;13.20;99.90;;;;;;5056037;28;20434;-67
2022/08/09 00:42:48;;;;;;;9.07;5.93;;;13.10;99.90;;;;;;5035289;28;20120;-67
2022/08/09 00:45:13;;;;;;;12.88;7.05;;;13.00;99.90;;;;;;5020135;28;20053;-67
2022/08/09 00:47:39;;;;;;;12.07;6.50;;;13.10;99.90;;;;;;5036816;28;20037;-67
2022/08/09 00:50:05;;;;;;;9.45;5.75;;;13.20;99.90;;;;;;5033909;28;20040;-68
2022/08/09 00:52:31;;;;;;;10.00;5.75;;;13.10;99.90;;;;;;5036628;28;20490;-67
2022/08/09 00:55:00;;;;;;;18.23;9.23;;;13.10;99.90;;;;;;5040760;28;20059;-68
2022/08/09 00:57:27;;;;;;;14.90;8.80;;;13.20;99.90;;;;;;5036857;28;20033;-67
2022/08/09 00:59:53;;;;;;;11.60;7.47;;;13.30;99.90;;;;;;5038661;28;20404;-68
2022/08/09 01:02:22;;;;;;;14.73;8.32;;;13.40;99.90;;;;;;5037117;28;20041;-67
2022/08/09 01:05:08;;;;;;;17.00;9.20;;;13.40;99.90;;;;;;5033932;28;20041;-68
2022/08/09 01:07:56;;;;;;;13.13;8.27;;;13.50;99.90;;;;;;5033901;28;20079;-68
2022/08/09 01:10:45;;;;;;;19.23;9.48;;;13.40;99.90;;;;;;5034704;28;20032;-68
2022/08/09 01:13:30;;;;;;;18.00;9.43;;;13.50;99.90;;;;;;5033488;28;20053;-68
2022/08/09 01:15:58;;;;;;;15.68;9.32;;;13.50;99.90;;;;;;5049647;28;20045;-68
2022/08/09 01:18:28;;;;;;;16.48;8.60;;;13.60;99.90;;;;;;5038603;28;20132;-68
2022/08/09 01:21:15;;;;;;;13.85;8.45;;;13.60;99.90;;;;;;5039152;28;20045;-68
2022/08/09 01:24:06;;;;;;;13.52;7.10;;;13.70;99.90;;;;;;5035805;28;20487;-68
2022/08/09 01:26:48;;;;;;;11.23;6.60;;;13.60;99.90;;;;;;5040860;28;20072;-68
2022/08/09 01:29:15;;;;;;;9.80;5.93;;;13.50;99.90;;;;;;5040276;28;20067;-68
2022/08/09 01:31:43;;;;;;;7.60;5.13;;;13.50;99.90;;;;;;5038423;28;20036;-68
2022/08/09 01:34:13;;;;;;;13.73;8.10;;;13.50;99.90;;;;;;5042811;28;20047;-69
2022/08/09 01:36:40;;;;;;;12.48;7.25;;;13.50;99.90;;;;;;5038669;28;20123;-69
2022/08/09 01:39:06;;;;;;;12.65;7.72;;;13.40;99.90;;;;;;5037848;28;20480;-69
2022/08/09 01:41:35;;;;;;;11.73;8.20;;;13.30;99.90;;;;;;5044366;28;20124;-69
2022/08/09 01:44:04;;;;;;;10.73;7.13;;;13.30;99.90;;;;;;5041477;28;20091;-69
2022/08/09 01:46:38;;;;;;;11.00;6.38;;;13.30;99.90;;;;;;5053859;28;20072;-69
2022/08/09 01:49:18;;;;;;;9.15;5.15;;;13.30;99.90;;;;;;5046590;28;20032;-69
2022/08/09 01:51:55;;;;;;;2.35;1.70;;;13.40;99.90;;;;;;5046310;28;20048;-69
2022/08/09 01:54:24;;;;;;;2.95;1.52;;;13.30;99.90;;;;;;5042872;28;20323;-69
2022/08/09 01:56:51;;;;;;;4.72;2.10;;;13.00;99.90;;;;;;5038546;28;20441;-69
2022/08/09 01:59:18;;;;;;;4.07;2.08;;;12.90;99.90;;;;;;5037441;28;20029;-70
2022/08/09 02:01:47;;;;;;;2.88;1.90;;;12.80;99.90;;;;;;5037249;28;20025;-70
2022/08/09 02:04:14;;;;;;;3.40;2.35;;;12.60;99.90;;;;;;5040903;28;20033;-69
2022/08/09 02:09:30;;;;;;;17.23;3.80;;;12.50;99.90;;;;;;5037776;28;20094;-70
2022/08/09 02:11:57;;;;;;;108.68;5.20;;;12.50;99.90;;;;;;5038570;28;20139;-70
2022/08/09 02:14:26;;;;;;;20.98;4.45;;;12.30;99.90;;;;;;5055452;28;20119;-70
2022/08/09 02:16:53;;;;;;;183.15;8.63;;;12.40;99.90;;;;;;5042366;28;20033;-70
2022/08/09 02:19:19;;;;;;;153.90;7.38;;;12.40;99.90;;;;;;5051131;28;20107;-69
2022/08/09 02:21:50;;;;;;;46.50;4.65;;;12.30;99.90;;;;;;5057055;28;20399;-69
2022/08/09 02:24:21;;;;;;;116.32;8.82;;;12.30;99.90;;;;;;5043529;28;20045;-69
2022/08/09 02:26:50;;;;;;;11.15;6.38;;;12.30;99.90;;;;;;5044639;28;20033;-70
2022/08/09 02:29:26;;;;;;;7.68;4.53;;;12.30;99.90;;;;;;5051583;28;20041;-70
2022/08/09 02:31:57;;;;;;;4.75;2.33;;;12.20;99.90;;;;;;5056787;28;20037;-70
2022/08/09 02:34:27;;;;;;;4.25;2.30;;;12.20;99.90;;;;;;5043126;28;20037;-70
2022/08/09 02:36:55;;;;;;;5.45;3.25;;;12.10;99.90;;;;;;5039126;28;20037;-70
2022/08/09 02:39:25;;;;;;;4.07;2.45;;;12.20;99.90;;;;;;5042904;28;20049;-70
2022/08/09 02:42:02;;;;;;;2.65;2.10;;;12.20;99.90;;;;;;5040418;28;20059;-70
2022/08/09 02:44:36;;;;;;;4.80;3.08;;;12.10;99.90;;;;;;5055995;28;20060;-70
2022/08/09 02:47:05;;;;;;;5.97;3.88;;;12.20;99.90;;;;;;5037683;28;20040;-70
2022/08/09 02:49:35;;;;;;;2.45;1.83;;;12.10;99.90;;;;;;5041025;28;20041;-70
2022/08/09 02:52:02;;;;;;;2.30;1.60;;;12.10;99.90;;;;;;5040353;28;20041;-70
2022/08/09 02:54:31;;;;;;;26.70;2.33;;;12.00;99.90;;;;;;5037384;28;20203;-70
2022/08/09 02:57:00;;;;;;;21.42;1.73;;;11.80;99.90;;;;;;5048641;28;20095;-70
2022/08/09 02:59:26;;;;;;;88.97;4.03;;;11.70;99.90;;;;;;5036333;28;20412;-70
2022/08/09 03:01:53;;;;;;;22.80;2.65;;;11.50;99.90;;;;;;5037961;28;20039;-70
2022/08/09 03:04:20;;;;;;;187.27;8.68;;;11.40;99.90;;;;;;5037677;28;20547;-70
2022/08/09 03:06:46;;;;;;;178.75;8.18;;;11.30;99.90;;;;;;5036745;28;20245;-70
2022/08/09 03:09:14;;;;;;;14.57;3.72;;;11.40;99.90;;;;;;5038833;28;20041;-70
2022/08/09 03:11:42;;;;;;;259.08;10.13;;;11.40;99.90;;;;;;5038491;28;20032;-70
2022/08/09 03:14:08;;;;;;;59.90;6.50;;;11.50;99.90;;;;;;5037852;28;20041;-70
2022/08/09 03:16:35;;;;;;;40.92;5.80;;;11.50;99.90;;;;;;5041134;28;20044;-70
2022/08/09 03:19:01;;;;;;;136.52;8.15;;;11.40;99.90;;;;;;5037916;28;20049;-70
2022/08/09 03:21:28;;;;;;;258.67;10.32;;;11.60;99.90;;;;;;5038222;28;20041;-70
2022/08/09 03:23:53;;;;;;;228.77;9.35;;;11.50;99.90;;;;;;5036825;28;20053;-70
2022/08/09 03:26:19;;;;;;;173.20;7.47;;;11.50;99.90;;;;;;5037552;28;20044;-71
2022/08/09 03:28:50;;;;;;;258.40;8.68;;;11.60;99.90;;;;;;5040264;28;20045;-72
2022/08/09 03:31:17;;;;;;;75.78;5.45;;;11.60;99.90;;;;;;5050156;28;20040;-70
2022/08/09 03:33:43;;;;;;;152.15;7.40;;;11.60;99.90;;;;;;5052861;28;20044;-70
2022/08/09 03:36:09;;;;;;;106.50;6.10;;;11.50;99.90;;;;;;5036658;28;20044;-70
2022/08/09 03:38:37;;;;;;;94.18;5.65;;;11.40;99.90;;;;;;5039664;28;20316;-70
2022/08/09 03:41:03;;;;;;;94.97;6.47;;;11.50;99.90;;;;;;5035037;28;20052;-70
2022/08/09 03:43:29;;;;;;;12.52;5.65;;;11.30;99.90;;;;;;5058920;28;20041;-70
2022/08/09 03:45:54;;;;;;;24.40;5.63;;;11.30;99.90;;;;;;5036951;28;20044;-71
2022/08/09 03:48:22;;;;;;;81.00;6.93;;;11.30;99.90;;;;;;5039796;28;20044;-71
2022/08/09 03:50:50;;;;;;;52.60;5.68;;;11.40;99.90;;;;;;5038821;28;21261;-70
2022/08/09 03:53:17;;;;;;;14.77;5.82;;;11.30;99.90;;;;;;5050755;28;20120;-71
2022/08/09 03:55:43;;;;;;;7.55;4.63;;;11.20;99.90;;;;;;5040131;28;20048;-71
2022/08/09 03:58:09;;;;;;;9.80;5.28;;;11.30;99.90;;;;;;5035605;28;20048;-71
2022/08/09 04:00:35;;;;;;;13.98;6.72;;;11.30;99.90;;;;;;5038397;28;21467;-72
2022/08/09 04:03:02;;;;;;;29.08;8.40;;;11.40;99.90;;;;;;5038058;28;20041;-70
2022/08/09 04:05:28;;;;;;;21.15;9.23;;;11.60;99.90;;;;;;5036717;28;20037;-72
2022/08/09 04:07:54;;;;;;;18.63;8.75;;;11.80;99.90;;;;;;5035297;28;20029;-72
2022/08/09 04:10:21;;;;;;;13.35;6.72;;;11.90;99.90;;;;;;5038925;28;20046;-72
2022/08/09 04:12:49;;;;;;;14.10;7.50;;;11.80;99.90;;;;;;5034678;28;20374;-71
2022/08/09 04:15:16;;;;;;;15.18;8.10;;;11.90;99.90;;;;;;5053086;28;20098;-72
2022/08/09 04:17:42;;;;;;;13.70;7.40;;;12.10;99.90;;;;;;5037809;28;20397;-71
2022/08/09 04:20:10;;;;;;;24.83;5.15;;;12.00;99.90;;;;;;5041990;28;20056;-72
2022/08/09 04:22:35;;;;;;;6.90;4.38;;;12.10;99.90;;;;;;5040763;28;20045;-72
2022/08/09 04:25:01;;;;;;;125.50;8.20;;;12.00;99.90;;;;;;5039033;28;20045;-71
2022/08/09 04:27:27;;;;;;;55.28;7.20;;;11.90;99.90;;;;;;5039960;28;20037;-72
2022/08/09 04:29:53;;;;;;;29.42;5.75;;;11.90;99.90;;;;;;5040905;28;20040;-72
2022/08/09 04:32:18;;;;;;;10.65;4.55;;;11.90;99.90;;;;;;5034448;28;20044;-72
2022/08/09 04:34:44;;;;;;;8.70;5.15;;;11.90;99.90;;;;;;5019941;28;20045;-72
2022/08/09 04:37:10;;;;;;;8.63;5.47;;;11.90;99.90;;;;;;5039390;28;20033;-72
2022/08/09 04:39:35;;;;;;;33.05;5.53;;;11.90;99.90;;;;;;5041872;28;20037;-72
2022/08/09 04:42:01;;;;;;;19.42;5.50;;;11.80;99.90;;;;;;5058530;28;20082;-72
2022/08/09 04:44:27;;;;;;;61.80;6.68;;;11.70;99.90;;;;;;5045444;28;20120;-71
2022/08/09 04:46:53;;;;;;;12.23;5.95;;;11.80;99.90;;;;;;5044102;28;20029;-72
2022/08/09 04:49:18;;;;;;;23.70;5.57;;;11.70;99.90;;;;;;5042538;28;20131;-73
2022/08/09 04:51:44;;;;;;;41.72;6.15;;;11.80;99.90;;;;;;5059212;28;20037;-72
2022/08/09 04:54:10;;;;;;;119.93;8.05;;;11.80;99.90;;;;;;5044130;28;20041;-72
2022/08/09 04:56:35;;;;;;;84.32;7.30;;;11.80;99.90;;;;;;5060220;28;20491;-72
2022/08/09 04:59:01;;;;;;;79.63;7.20;;;11.80;99.90;;;;;;5044161;28;20921;-72
2022/08/09 05:01:27;;;;;;;15.63;5.38;;;11.70;99.90;;;;;;5055027;28;20388;-73
2022/08/09 05:03:52;;;;;;;41.20;6.15;;;11.80;99.90;;;;;;5047325;28;20045;-73
2022/08/09 05:06:18;;;;;;;13.60;5.07;;;11.80;99.90;;;;;;5047335;28;20082;-71
2022/08/09 05:08:44;;;;;;;9.73;5.30;;;11.90;99.90;;;;;;5042932;28;20120;-72
2022/08/09 05:11:09;;;;;;;8.57;5.68;;;12.10;99.90;;;;;;5047864;28;20442;-73
2022/08/09 05:13:35;;;;;;;8.65;5.57;;;12.00;99.90;;;;;;5047961;28;20036;-71
2022/08/09 05:16:01;;;;;;;9.75;6.13;;;12.20;99.90;;;;;;5047120;28;20048;-71
2022/08/09 05:18:32;;;;;;;9.60;6.07;;;12.20;99.90;;;;;;5046942;28;20079;-71
2022/08/09 05:20:58;;;;;;;9.98;6.13;;;12.30;99.90;;;;;;5046949;28;20048;-70
2022/08/09 05:23:24;;;;;;;11.38;6.60;;;12.40;99.90;;;;;;5053562;28;20048;-70
2022/08/09 05:25:50;;;;;;;10.93;6.30;;;12.40;99.90;;;;;;5051649;28;20478;-70
2022/08/09 05:28:16;;;;;;;12.05;7.38;;;12.50;99.90;;;;;;5064142;28;20483;-70
2022/08/09 05:30:43;;;;;;;14.45;7.50;;;12.70;99.90;;;;;;5052243;28;20036;-69
2022/08/09 05:33:09;;;;;;;11.25;6.65;;;12.80;99.90;;;;;;5034916;28;20041;-70
2022/08/09 05:35:34;;;;;;;13.07;7.72;;;12.90;99.90;;;;;;5049534;28;20064;-71
2022/08/09 05:38:00;;;;;;;13.48;7.97;;;13.10;99.90;;;;;;5050882;28;20419;-71
2022/08/09 05:40:27;;;;;;;15.90;8.60;;;13.20;99.90;;;;;;5046924;28;20557;-71
2022/08/09 05:42:53;;;;;;;14.55;8.85;;;13.20;99.90;;;;;;5044323;28;20126;-71
2022/08/09 05:45:19;;;;;;;16.85;8.95;;;13.30;99.90;;;;;;5048289;28;20396;-71
2022/08/09 05:47:45;;;;;;;18.55;8.85;;;13.50;99.90;;;;;;5037797;28;20040;-70
2022/08/09 05:50:11;;;;;;;15.70;9.07;;;13.60;99.90;;;;;;5036042;28;20037;-71
2022/08/09 05:52:37;;;;;;;16.25;8.88;;;13.70;99.90;;;;;;5041663;28;20868;-69
2022/08/09 05:55:03;;;;;;;15.15;8.27;;;13.90;99.90;;;;;;5040841;28;20412;-71
2022/08/09 05:57:28;;;;;;;16.85;8.75;;;14.00;99.90;;;;;;5042043;28;20040;-70
2022/08/09 05:59:54;;;;;;;16.48;9.70;;;14.20;99.90;;;;;;5044333;28;20042;-69
2022/08/09 06:02:20;;;;;;;15.77;9.40;;;14.20;99.90;;;;;;5043094;28;20106;-69
2022/08/09 06:04:45;;;;;;;16.35;8.85;;;14.50;99.90;;;;;;5039027;28;20076;-69
2022/08/09 06:07:11;;;;;;;16.33;9.70;;;14.60;99.90;;;;;;5057197;28;20427;-68
2022/08/09 06:09:36;;;;;;;17.58;9.02;;;14.60;99.90;;;;;;5044374;28;20467;-68
2022/08/09 06:12:03;;;;;;;16.75;8.85;;;14.90;99.90;;;;;;5041243;28;20041;-67
2022/08/09 06:14:28;;;;;;;15.63;8.93;;;14.90;99.90;;;;;;5020743;28;20033;-67
2022/08/09 06:16:54;;;;;;;15.70;8.65;;;15.00;99.90;;;;;;5039413;28;20036;-67
2022/08/09 06:19:20;;;;;;;14.13;7.75;;;15.20;99.90;;;;;;5036777;28;20043;-67
2022/08/09 06:21:46;;;;;;;17.35;7.65;;;15.40;99.90;;;;;;5037663;28;20038;-67
2022/08/09 06:24:12;;;;;;;14.70;8.25;;;15.60;99.90;;;;;;5036591;28;20128;-67
2022/08/09 06:26:40;;;;;;;14.80;8.18;;;15.80;99.90;;;;;;5042835;28;20125;-68
2022/08/09 06:29:08;;;;;;;13.20;7.10;;;15.90;99.90;;;;;;5043889;28;20083;-67
2022/08/09 06:31:34;;;;;;;10.93;6.60;;;16.20;99.90;;;;;;5039642;28;20118;-68
2022/08/09 06:34:00;;;;;;;12.80;6.88;;;16.20;99.90;;;;;;5040306;28;20115;-68
2022/08/09 06:36:26;;;;;;;13.73;6.97;;;16.40;99.90;;;;;;5039781;28;20102;-68
2022/08/09 06:38:52;;;;;;;11.82;6.45;;;16.60;99.90;;;;;;5038804;28;20483;-68
2022/08/09 06:41:18;;;;;;;11.18;6.65;;;16.60;99.90;;;;;;5042603;28;20056;-68
2022/08/09 06:43:44;;;;;;;10.32;6.10;;;16.70;99.90;;;;;;5042013;28;20099;-68
2022/08/09 06:46:09;;;;;;;12.40;6.40;;;16.90;99.90;;;;;;5053706;28;20428;-68
2022/08/09 06:48:35;;;;;;;11.85;6.50;;;17.00;99.90;;;;;;5056635;28;20072;-68
2022/08/09 06:51:00;;;;;;;10.55;5.90;;;17.20;99.90;;;;;;5055057;28;20480;-69
2022/08/09 06:53:27;;;;;;;8.85;5.15;;;17.30;99.90;;;;;;5039104;28;20059;-71
2022/08/09 06:55:52;;;;;;;8.52;4.97;;;17.40;99.90;;;;;;5040300;28;20041;-69
2022/08/09 06:58:18;;;;;;;8.77;4.80;;;17.50;99.90;;;;;;5044781;28;20040;-70
2022/08/09 07:00:44;;;;;;;8.88;4.63;;;17.70;99.90;;;;;;5030157;28;20488;-68
2022/08/09 07:03:10;;;;;;;7.63;4.65;;;17.70;99.90;;;;;;5046503;28;20510;-71
2022/08/09 07:05:35;;;;;;;7.45;4.53;;;17.90;99.90;;;;;;5046686;28;20055;-70
2022/08/09 07:08:01;;;;;;;7.13;4.28;;;18.00;99.90;;;;;;5060411;28;20028;-70
2022/08/09 07:10:26;;;;;;;10.32;4.40;;;18.10;99.90;;;;;;5045734;28;20053;-71
2022/08/09 07:12:52;;;;;;;9.60;4.32;;;18.30;99.90;;;;;;5043820;28;20124;-70
2022/08/09 07:15:18;;;;;;;7.38;4.10;;;18.30;99.90;;;;;;5063173;28;20074;-70
2022/08/09 07:17:43;;;;;;;11.07;3.80;;;18.50;99.90;;;;;;5045740;28;20049;-69
2022/08/09 07:20:09;;;;;;;6.63;4.00;;;18.50;99.90;;;;;;5045416;28;20048;-71
2022/08/09 07:22:35;;;;;;;5.47;4.00;;;18.60;99.90;;;;;;5044664;28;20040;-71
2022/08/09 07:25:04;;;;;;;7.63;3.97;;;18.70;99.90;;;;;;5046272;28;20063;-69
2022/08/09 07:27:30;;;;;;;9.02;4.13;;;18.70;99.90;;;;;;5044496;28;20463;-70
2022/08/09 07:29:55;;;;;;;7.97;4.65;;;18.90;99.90;;;;;;5059066;28;20095;-70
2022/08/09 07:32:21;;;;;;;8.93;4.22;;;18.90;99.90;;;;;;5028298;28;20095;-69
2022/08/09 07:34:47;;;;;;;6.22;3.90;;;18.90;99.90;;;;;;5047682;28;20072;-73
2022/08/09 07:37:12;;;;;;;7.40;3.80;;;19.00;99.90;;;;;;5044162;28;20040;-70
2022/08/09 07:39:38;;;;;;;10.52;3.80;;;19.00;99.90;;;;;;5024022;28;20032;-72
2022/08/09 07:42:04;;;;;;;6.95;3.42;;;19.10;99.90;;;;;;5043947;28;20143;-73
2022/08/09 07:44:30;;;;;;;5.22;3.42;;;19.20;99.90;;;;;;5046812;28;20088;-73
2022/08/09 07:46:56;;;;;;;7.55;4.15;;;19.20;99.90;;;;;;5042261;28;20069;-72
2022/08/09 07:49:21;;;;;;;5.78;3.33;;;19.30;99.90;;;;;;5042822;28;20051;-69
2022/08/09 07:51:47;;;;;;;7.25;4.10;;;19.40;99.90;;;;;;5045322;28;20033;-72
2022/08/09 07:54:13;;;;;;;7.00;3.53;;;19.50;99.90;;;;;;5045960;28;20044;-72
2022/08/09 07:56:39;;;;;;;5.30;3.33;;;19.60;99.90;;;;;;5045085;28;20438;-73
2022/08/09 07:59:06;;;;;;;7.03;3.20;;;19.70;99.90;;;;;;5042960;28;20045;-71
2022/08/09 08:01:32;;;;;;;4.22;2.55;;;19.70;99.90;;;;;;5043980;28;20511;-70
2022/08/09 08:03:57;;;;;;;3.75;2.20;;;19.80;99.90;;;;;;5041337;28;20041;-73
2022/08/09 08:06:23;;;;;;;5.80;1.95;;;19.90;99.90;;;;;;5028111;28;20094;-73
2022/08/09 08:08:49;;;;;;;4.10;2.03;;;19.90;99.90;;;;;;5058129;28;20048;-70
2022/08/09 08:11:15;;;;;;;4.50;2.20;;;20.00;99.90;;;;;;5065665;28;20052;-71
2022/08/09 08:13:41;;;;;;;2.90;2.00;;;20.10;99.90;;;;;;5047671;28;20076;-71
2022/08/09 08:16:08;;;;;;;3.45;2.10;;;20.10;99.90;;;;;;5047668;28;20044;-71
2022/08/09 08:18:34;;;;;;;3.42;2.22;;;20.20;99.90;;;;;;5049647;28;20408;-72
2022/08/09 08:21:00;;;;;;;8.10;2.58;;;20.30;99.90;;;;;;5049153;28;20040;-71
2022/08/09 08:23:25;;;;;;;4.72;2.28;;;20.40;99.90;;;;;;5048168;28;20053;-70
2022/08/09 08:25:51;;;;;;;4.55;1.92;;;20.40;99.90;;;;;;5061199;28;20041;-71
2022/08/09 08:28:18;;;;;;;4.22;2.08;;;20.50;99.90;;;;;;5051277;28;20074;-71
2022/08/09 08:30:44;;;;;;;4.07;2.15;;;20.60;99.90;;;;;;5049349;28;20061;-74
2022/08/09 08:33:10;;;;;;;3.72;1.85;;;20.70;99.90;;;;;;5046430;28;20116;-72
2022/08/09 08:35:36;;;;;;;4.25;1.92;;;20.70;99.90;;;;;;5052771;28;20140;-70
2022/08/09 08:38:01;;;;;;;3.95;2.20;;;20.80;99.90;;;;;;5050602;28;20041;-70
2022/08/09 08:40:27;;;;;;;4.63;1.90;;;20.90;99.90;;;;;;5047400;28;20040;-70
2022/08/09 08:42:53;;;;;;;4.07;1.90;;;21.00;99.90;;;;;;5051012;28;20037;-72
2022/08/09 08:45:31;;;;;;;3.25;2.10;;;21.10;99.90;;;;;;5046294;28;20041;-73
2022/08/09 08:47:56;;;;;;;4.10;2.00;;;21.10;99.90;;;;;;5058928;28;20423;-70
2022/08/09 08:50:22;;;;;;;3.67;2.20;;;21.20;99.90;;;;;;5052299;28;20067;-72
2022/08/09 08:52:48;;;;;;;4.22;2.03;;;21.30;99.90;;;;;;5054433;28;20069;-73
2022/08/09 08:55:14;;;;;;;3.83;1.52;;;21.30;99.90;;;;;;5048471;28;20477;-72
2022/08/09 08:57:40;;;;;;;2.38;1.70;;;21.40;99.90;;;;;;5035439;28;20033;-72
2022/08/09 09:00:09;;;;;;;3.45;1.80;;;21.50;99.90;;;;;;5022573;28;20052;-71
2022/08/09 09:02:36;;;;;;;3.20;1.90;;;21.50;99.90;;;;;;5060966;28;20045;-73
2022/08/09 09:05:02;;;;;;;2.65;1.80;;;21.60;99.90;;;;;;5048645;28;20045;-71
2022/08/09 09:07:31;;;;;;;3.10;1.90;;;21.70;99.90;;;;;;5050653;28;20037;-68
2022/08/09 09:09:57;;;;;;;3.08;1.77;;;21.70;99.90;;;;;;5069496;28;20036;-70
2022/08/09 09:12:26;;;;;;;2.55;1.65;;;21.70;99.90;;;;;;5070964;28;20364;-70
2022/08/09 09:14:53;;;;;;;3.85;1.70;;;21.70;99.90;;;;;;5055531;28;20146;-70
2022/08/09 09:17:19;;;;;;;2.90;1.50;;;21.80;99.90;;;;;;5071442;28;20119;-69
2022/08/09 09:19:45;;;;;;;3.30;1.58;;;21.80;99.90;;;;;;5057369;28;20190;-74
2022/08/09 09:22:14;;;;;;;3.83;1.60;;;21.80;99.90;;;;;;5068442;28;20468;-70
2022/08/09 09:24:51;;;;;;;2.08;1.60;;;21.80;99.90;;;;;;5048391;28;20047;-71
2022/08/09 09:27:25;;;;;;;2.67;1.40;;;21.60;99.90;;;;;;5065268;28;20040;-70
2022/08/09 09:29:54;;;;;;;2.17;1.75;;;21.50;99.90;;;;;;5035216;28;20033;-72
2022/08/09 09:32:22;;;;;;;2.35;1.50;;;21.20;99.90;;;;;;5051417;28;20044;-71
2022/08/09 09:35:14;;;;;;;1.90;1.50;;;21.10;99.90;;;;;;5044865;28;20103;-70
2022/08/09 09:37:40;;;;;;;3.65;1.80;;;21.00;99.90;;;;;;5050143;28;20056;-72
2022/08/09 09:40:06;;;;;;;3.08;1.50;;;21.10;99.90;;;;;;5068146;28;20040;-72
2022/08/09 09:42:32;;;;;;;3.15;1.42;;;21.10;99.90;;;;;;5061064;28;20033;-69
2022/08/09 09:45:08;;;;;;;4.70;1.50;;;21.10;99.90;;;;;;5062419;28;20118;-70
2022/08/09 09:47:34;;;;;;;2.63;1.50;;;21.20;99.90;;;;;;5067657;28;20037;-70
2022/08/09 09:50:01;;;;;;;3.08;1.55;;;21.30;99.90;;;;;;5049334;28;20072;-69
2022/08/09 09:52:27;;;;;;;2.25;1.50;;;21.40;99.90;;;;;;5050513;28;20500;-71
2022/08/09 09:55:01;;;;;;;5.28;1.73;;;21.50;99.90;;;;;;5051468;28;20182;-71
2022/08/09 09:57:27;;;;;;;1.70;1.10;;;21.60;99.90;;;;;;5050166;28;20045;-72
2022/08/09 09:59:53;;;;;;;2.45;1.30;;;21.60;99.90;;;;;;5051425;28;20114;-73
2022/08/09 10:02:20;;;;;;;2.53;1.23;;;21.60;99.90;;;;;;5050816;28;20048;-72
2022/08/09 10:05:07;;;;;;;1.85;1.25;;;21.70;99.90;;;;;;5034585;28;20530;-70
2022/08/09 10:07:33;;;;;;;1.67;1.15;;;21.80;99.90;;;;;;5032710;28;20037;-73
2022/08/09 10:10:00;;;;;;;1.80;1.30;;;21.90;99.90;;;;;;5043782;28;20476;-72
2022/08/09 10:12:29;;;;;;;1.80;1.00;;;22.10;99.90;;;;;;5048463;28;20057;-72
2022/08/09 10:15:16;;;;;;;1.58;1.00;;;22.20;99.90;;;;;;5042193;28;20037;-71
2022/08/09 10:17:44;;;;;;;3.35;1.00;;;22.40;99.90;;;;;;5045374;28;20048;-67
2022/08/09 10:20:19;;;;;;;1.50;1.30;;;22.50;99.90;;;;;;5061994;28;20094;-69
2022/08/09 10:22:47;;;;;;;2.15;1.30;;;22.60;99.90;;;;;;5064871;28;20040;-71
2022/08/09 10:25:12;;;;;;;2.47;1.05;;;22.60;99.90;;;;;;5031117;28;20439;-69
2022/08/09 10:27:39;;;;;;;2.17;1.00;;;22.60;99.90;;;;;;5048482;28;20073;-72
2022/08/09 10:30:06;;;;;;;2.15;1.30;;;22.60;99.90;;;;;;5047261;28;20045;-72
2022/08/09 10:32:33;;;;;;;1.95;1.10;;;22.70;99.90;;;;;;5048567;28;20036;-72
2022/08/09 10:34:59;;;;;;;1.35;1.10;;;22.80;99.90;;;;;;5048442;28;20053;-71
2022/08/09 10:37:26;;;;;;;2.92;1.25;;;22.90;99.90;;;;;;5045115;28;20551;-70
2022/08/09 10:39:52;;;;;;;1.90;1.00;;;23.00;99.90;;;;;;5044758;28;20076;-72
2022/08/09 10:42:19;;;;;;;2.50;1.15;;;23.00;99.90;;;;;;5036495;28;20076;-70
2022/08/09 10:44:53;;;;;;;1.58;1.10;;;23.00;99.90;;;;;;5035659;28;20041;-72
2022/08/09 10:47:53;;;;;;;1.65;1.10;;;22.90;99.90;;;;;;5029451;28;20419;-70
2022/08/09 10:53:37;;;;;;;1.42;1.15;;;23.00;99.90;;;;;;5060044;28;20052;-71
2022/08/09 10:56:19;;;;;;;2.00;1.10;;;22.90;99.90;;;;;;5044359;28;20044;-70
2022/08/09 10:58:45;;;;;;;1.25;1.00;;;22.90;99.90;;;;;;5046756;28;20048;-71
2022/08/09 11:01:30;;;;;;;2.60;1.02;;;22.90;99.90;;;;;;5050999;28;20045;-72
2022/08/09 11:04:07;;;;;;;1.42;1.00;;;23.00;99.90;;;;;;5050946;28;20124;-71
2022/08/09 11:06:36;;;;;;;3.47;1.33;;;23.00;99.90;;;;;;5050433;28;20072;-71
2022/08/09 11:09:04;;;;;;;1.23;0.93;;;23.00;99.90;;;;;;5050974;28;20072;-71
2022/08/09 11:11:53;;;;;;;1.95;1.02;;;23.10;99.90;;;;;;5050983;28;20163;-71
2022/08/09 11:14:30;;;;;;;2.00;1.10;;;23.20;99.90;;;;;;5050748;28;20043;-69
2022/08/09 11:16:56;;;;;;;1.33;1.08;;;23.30;99.90;;;;;;5050371;28;20044;-71
2022/08/09 11:19:50;;;;;;;2.63;1.15;;;23.30;99.90;;;;;;5051067;28;20040;-70
2022/08/09 11:22:16;;;;;;;2.17;1.10;;;23.30;99.90;;;;;;5050666;28;20037;-68
2022/08/09 11:25:05;;;;;;;1.17;1.05;;;23.40;99.90;;;;;;5050628;28;20041;-71
2022/08/09 11:27:35;;;;;;;1.35;1.13;;;23.40;99.90;;;;;;5047877;28;20415;-70
2022/08/09 11:30:01;;;;;;;1.08;0.98;;;23.40;99.90;;;;;;5047778;28;20106;-70
2022/08/09 11:32:43;;;;;;;2.35;0.95;;;23.50;99.90;;;;;;5050666;28;20063;-69
2022/08/09 11:35:16;;;;;;;;;;;23.60;99.90;;;;;;5049507;28;20052;-70
2022/08/09 11:37:44;;;;;;;2.22;0.90;;;23.70;99.90;;;;;;5063593;28;19990;-70
2022/08/09 11:40:31;;;;;;;1.92;1.00;;;23.70;99.90;;;;;;5050459;28;20041;-69
2022/08/09 11:42:59;;;;;;;1.23;1.05;;;23.70;99.90;;;;;;5045222;28;20194;-71
2022/08/09 11:45:41;;;;;;;1.10;1.00;;;23.70;99.90;;;;;;5043280;28;20036;-72
2022/08/09 11:48:26;;;;;;;5.40;1.10;;;23.80;99.90;;;;;;5049497;28;20094;-71
2022/08/09 11:50:58;;;;;;;1.10;1.00;;;23.80;99.90;;;;;;5050248;28;20112;-71
2022/08/09 11:53:29;;;;;;;1.27;1.13;;;23.90;99.90;;;;;;5050261;28;20136;-69
2022/08/09 11:55:58;;;;;;;2.97;1.02;;;23.90;99.90;;;;;;5046432;28;20041;-73
2022/08/09 11:58:27;;;;;;;3.47;1.00;;;23.80;99.90;;;;;;5049748;28;20430;-72
2022/08/09 12:01:02;;;;;;;1.17;0.90;;;23.80;99.90;;;;;;5050116;28;20044;-70
2022/08/09 12:03:28;;;;;;;1.15;1.00;;;23.80;99.90;;;;;;5050042;28;20045;-69
2022/08/09 12:05:57;;;;;;;0.98;0.90;;;23.70;99.90;;;;;;5049625;28;20045;-70
2022/08/09 12:08:25;;;;;;;2.00;1.10;;;23.70;99.90;;;;;;5048010;28;20041;-71
2022/08/09 12:10:53;;;;;;;1.10;0.85;;;23.80;99.90;;;;;;5049353;28;20044;-72
2022/08/09 12:13:38;;;;;;;2.05;1.00;;;23.80;99.90;;;;;;5045751;28;20041;-71
2022/08/09 12:16:07;;;;;;;0.90;0.80;;;23.90;99.90;;;;;;5044969;28;20052;-71
2022/08/09 12:18:35;;;;;;;1.85;0.90;;;23.90;99.90;;;;;;5050029;28;20072;-68
2022/08/09 12:21:04;;;;;;;1.00;0.90;;;24.00;99.90;;;;;;5049676;28;20052;-72
2022/08/09 12:23:31;;;;;;;2.88;1.00;;;24.00;99.90;;;;;;5049982;28;20048;-70
2022/08/09 12:25:57;;;;;;;0.98;0.98;;;24.00;99.90;;;;;;5048734;28;20041;-72
2022/08/09 12:28:24;;;;;;;1.80;1.30;;;24.10;99.90;;;;;;5044053;28;20045;-72
2022/08/09 12:30:50;;;;;;;1.20;1.00;;;24.20;99.90;;;;;;5050131;28;20510;-69
2022/08/09 12:33:17;;;;;;;1.08;1.00;;;24.20;99.90;;;;;;5045452;28;20044;-69
2022/08/09 12:35:43;;;;;;;1.25;1.15;;;24.10;99.90;;;;;;5049690;28;20041;-69
2022/08/09 12:38:35;;;;;;;2.55;1.20;;;24.00;99.90;;;;;;5049113;28;20135;-70
2022/08/09 12:41:01;;;;;;;2.05;1.00;;;23.90;99.90;;;;;;5031107;28;20334;-70
2022/08/09 12:43:28;;;;;;;1.92;1.00;;;24.00;99.90;;;;;;5049308;28;20048;-72
2022/08/09 12:45:56;;;;;;;1.40;1.05;;;24.10;99.90;;;;;;5049545;28;20045;-68
2022/08/09 12:48:23;;;;;;;1.55;0.90;;;24.20;99.90;;;;;;5046490;28;20037;-70
2022/08/09 12:50:49;;;;;;;1.50;1.00;;;24.20;99.90;;;;;;5049557;28;20048;-71
2022/08/09 12:53:24;;;;;;;2.30;0.80;;;24.20;99.90;;;;;;5049525;28;20450;-71
2022/08/09 12:55:50;;;;;;;1.08;0.98;;;24.20;99.90;;;;;;5049443;28;20117;-71